createdAt,value
2018-05-03T00:01:32.506Z,99.90
2018-05-03T00:04:01.104Z,99.90
2018-05-03T00:09:10.896Z,99.90
2018-05-03T00:11:38.730Z,99.90
2018-05-03T00:14:06.566Z,99.90
2018-05-03T00:16:34.383Z,99.90
2018-05-03T00:19:02.336Z,99.90
2018-05-03T00:21:30.228Z,99.90
2018-05-03T00:23:58.233Z,99.90
2018-05-03T00:26:26.052Z,99.90
2018-05-03T00:28:53.867Z,99.90
2018-05-03T00:31:21.685Z,99.90
2018-05-03T00:33:49.510Z,99.90
2018-05-03T00:36:18.124Z,99.90
2018-05-03T00:38:45.961Z,99.90
2018-05-03T00:41:14.561Z,99.90
2018-05-03T00:43:42.417Z,99.90
2018-05-03T00:46:11.053Z,99.90
2018-05-03T00:48:38.872Z,99.90
2018-05-03T00:51:07.472Z,99.90
2018-05-03T00:53:35.429Z,99.90
2018-05-03T00:56:04.097Z,99.90
2018-05-03T00:58:31.939Z,99.90
2018-05-03T01:00:59.934Z,99.90
2018-05-03T01:03:29.928Z,99.90
2018-05-03T01:05:57.860Z,99.90
2018-05-03T01:08:25.713Z,99.90
2018-05-03T01:10:53.657Z,99.90
2018-05-03T01:13:22.265Z,99.90
2018-05-03T01:15:50.101Z,99.90
2018-05-03T01:18:18.704Z,99.90
2018-05-03T01:20:47.301Z,99.90
2018-05-03T01:23:15.134Z,99.90
2018-05-03T01:25:43.736Z,99.90
2018-05-03T01:28:12.323Z,99.90
2018-05-03T01:30:40.184Z,99.90
2018-05-03T01:33:08.796Z,99.90
2018-05-03T01:35:42.705Z,99.90
2018-05-03T01:38:10.557Z,99.90
2018-05-03T01:40:38.391Z,99.90
2018-05-03T01:43:07.003Z,99.90
2018-05-03T01:52:01.568Z,99.90
2018-05-03T01:54:29.422Z,99.90
2018-05-03T01:56:57.246Z,99.90
2018-05-03T01:59:25.854Z,99.90
2018-05-03T02:01:54.485Z,99.90
2018-05-03T02:04:22.487Z,99.90
2018-05-03T02:06:50.462Z,99.90
2018-05-03T02:09:19.113Z,99.90
2018-05-03T02:11:47.018Z,99.90
2018-05-03T02:14:14.918Z,99.90
2018-05-03T02:16:43.459Z,99.90
2018-05-03T02:22:07.802Z,99.90
2018-05-03T02:24:35.693Z,99.90
2018-05-03T02:27:03.593Z,99.90
2018-05-03T02:29:32.679Z,99.90
2018-05-03T02:32:00.616Z,99.90
2018-05-03T02:34:28.587Z,99.90
2018-05-03T02:36:56.442Z,99.90
2018-05-03T02:39:24.270Z,99.90
2018-05-03T02:41:52.227Z,99.90
2018-05-03T02:47:10.125Z,99.90
2018-05-03T02:49:37.987Z,99.90
2018-05-03T02:52:05.893Z,99.90
2018-05-03T02:54:33.816Z,99.90
2018-05-03T02:57:07.450Z,99.90
2018-05-03T02:59:41.336Z,99.90
2018-05-03T03:02:15.083Z,99.90
2018-05-03T03:04:56.796Z,99.90
2018-05-03T03:07:32.429Z,99.90
2018-05-03T03:10:22.009Z,99.90
2018-05-03T03:13:01.633Z,99.90
2018-05-03T03:15:40.234Z,99.90
2018-05-03T03:18:14.097Z,99.90
2018-05-03T03:20:55.562Z,99.90
2018-05-03T03:23:35.435Z,99.90
2018-05-03T03:26:16.247Z,99.90
2018-05-03T03:28:56.232Z,99.90
2018-05-03T03:31:35.880Z,99.90
2018-05-03T03:34:04.497Z,99.90
2018-05-03T03:36:38.877Z,99.90
2018-05-03T03:39:12.600Z,99.90
2018-05-03T03:41:40.439Z,99.90
2018-05-03T03:44:14.835Z,99.90
2018-05-03T03:46:42.658Z,99.90
2018-05-03T03:49:11.314Z,99.90
2018-05-03T03:51:39.153Z,99.90
2018-05-03T03:54:07.119Z,99.90
2018-05-03T03:56:34.953Z,99.90
2018-05-03T04:01:44.391Z,99.90
2018-05-03T04:04:13.009Z,99.90
2018-05-03T04:06:40.870Z,99.90
2018-05-03T04:09:08.782Z,99.90
2018-05-03T04:11:36.621Z,99.90
2018-05-03T04:14:04.457Z,99.90
2018-05-03T04:16:32.304Z,99.90
2018-05-03T04:22:17.519Z,99.90
2018-05-03T04:24:52.534Z,99.90
2018-05-03T04:27:21.888Z,99.90
2018-05-03T04:29:50.577Z,99.90
2018-05-03T04:32:18.489Z,99.90
2018-05-03T04:34:46.428Z,99.90
2018-05-03T04:37:14.307Z,99.90
2018-05-03T04:39:42.225Z,99.90
2018-05-03T04:42:10.116Z,99.90
2018-05-03T04:44:38.049Z,99.90
2018-05-03T04:47:05.987Z,99.90
2018-05-03T04:49:33.817Z,99.90
2018-05-03T04:52:01.649Z,99.90
2018-05-03T04:54:45.158Z,99.90
2018-05-03T04:57:12.978Z,99.90
2018-05-03T05:09:13.066Z,99.90
2018-05-03T05:11:40.943Z,99.90
2018-05-03T05:14:08.814Z,99.90
2018-05-03T05:16:36.645Z,99.90
2018-05-03T05:19:04.478Z,99.90
2018-05-03T05:21:32.322Z,99.90
2018-05-03T05:24:00.362Z,99.90
2018-05-03T05:26:28.245Z,99.90
2018-05-03T05:28:56.162Z,99.90
2018-05-03T05:31:26.011Z,99.90
2018-05-03T05:33:53.994Z,99.90
2018-05-03T05:36:21.886Z,99.90
2018-05-03T05:38:49.816Z,99.90
2018-05-03T05:41:17.571Z,99.90
2018-05-03T05:43:45.408Z,99.90
2018-05-03T05:46:14.157Z,99.90
2018-05-03T05:48:42.064Z,99.90
2018-05-03T05:51:10.612Z,99.90
2018-05-03T05:53:38.462Z,99.90
2018-05-03T05:56:06.390Z,99.90
2018-05-03T05:58:34.987Z,99.90
2018-05-03T06:01:03.432Z,99.90
2018-05-03T06:03:32.140Z,99.90
2018-05-03T06:05:59.976Z,99.90
2018-05-03T06:08:28.427Z,99.90
2018-05-03T06:10:56.562Z,99.90
2018-05-03T06:13:24.482Z,99.90
2018-05-03T06:15:52.321Z,99.90
2018-05-03T06:18:20.146Z,99.90
2018-05-03T06:20:48.216Z,99.90
2018-05-03T06:23:16.455Z,99.90
2018-05-03T06:25:44.656Z,99.90
2018-05-03T06:28:13.078Z,99.90
2018-05-03T06:30:41.085Z,99.90
2018-05-03T06:33:09.171Z,99.90
2018-05-03T06:35:38.164Z,99.90
2018-05-03T06:38:07.696Z,99.90
2018-05-03T06:40:35.957Z,99.90
2018-05-03T06:43:04.991Z,99.90
2018-05-03T06:45:33.308Z,99.90
2018-05-03T06:48:01.512Z,99.90
2018-05-03T06:50:29.759Z,99.90
2018-05-03T06:52:57.998Z,99.90
2018-05-03T06:55:26.224Z,99.90
2018-05-03T06:57:55.242Z,99.90
2018-05-03T07:00:23.667Z,99.90
2018-05-03T07:02:51.883Z,99.90
2018-05-03T07:05:20.849Z,99.90
2018-05-03T07:07:49.105Z,99.90
2018-05-03T07:10:17.311Z,99.90
2018-05-03T07:12:48.867Z,99.90
2018-05-03T07:15:17.855Z,99.90
2018-05-03T07:17:46.883Z,99.90
2018-05-03T07:20:15.135Z,99.90
2018-05-03T07:22:44.172Z,99.90
2018-05-03T07:25:12.435Z,99.90
2018-05-03T07:27:40.647Z,99.90
2018-05-03T07:30:09.051Z,99.90
2018-05-03T07:32:38.035Z,98.10
2018-05-03T07:35:06.285Z,98.10
2018-05-03T07:37:34.815Z,99.00
2018-05-03T07:40:03.892Z,99.90
2018-05-03T07:42:32.903Z,99.80
2018-05-03T07:45:01.916Z,96.50
2018-05-03T07:47:30.113Z,96.40
2018-05-03T07:49:58.319Z,94.10
2018-05-03T07:52:26.632Z,94.10
2018-05-03T07:54:54.887Z,94.40
2018-05-03T07:57:23.077Z,95.10
2018-05-03T07:59:52.061Z,91.30
2018-05-03T08:02:21.117Z,87.80
2018-05-03T08:04:49.316Z,87.80
2018-05-03T08:07:17.589Z,84.00
2018-05-03T08:09:45.825Z,83.80
2018-05-03T08:12:14.038Z,78.80
2018-05-03T08:14:42.243Z,77.70
2018-05-03T08:17:10.467Z,76.90
2018-05-03T08:19:38.711Z,71.90
2018-05-03T08:22:06.982Z,71.60
2018-05-03T08:24:35.224Z,72.10
2018-05-03T08:27:03.419Z,69.00
2018-05-03T08:29:31.669Z,70.00
2018-05-03T08:31:59.912Z,67.20
2018-05-03T08:34:28.148Z,71.50
2018-05-03T08:36:56.391Z,69.40
2018-05-03T08:39:24.795Z,68.10
2018-05-03T08:41:53.510Z,69.40
2018-05-03T08:44:21.380Z,69.40
2018-05-03T08:46:51.676Z,71.50
2018-05-03T08:49:19.512Z,69.20
2018-05-03T08:51:48.097Z,76.00
2018-05-03T08:54:15.969Z,76.10
2018-05-03T08:56:43.811Z,76.80
2018-05-03T08:59:11.706Z,76.10
2018-05-03T09:01:39.683Z,79.00
2018-05-03T09:04:08.194Z,78.70
2018-05-03T09:12:10.092Z,82.00
2018-05-03T09:14:38.680Z,85.50
2018-05-03T09:17:06.646Z,85.50
2018-05-03T09:19:35.303Z,85.80
2018-05-03T09:22:03.166Z,85.80
2018-05-03T09:24:31.088Z,83.00
2018-05-03T09:26:58.948Z,86.30
2018-05-03T09:29:26.790Z,84.60
2018-05-03T09:31:55.385Z,87.40
2018-05-03T09:34:23.341Z,87.30
2018-05-03T09:36:51.958Z,86.50
2018-05-03T09:46:13.719Z,86.80
2018-05-03T09:48:41.542Z,86.20
2018-05-03T09:51:09.413Z,83.60
2018-05-03T09:53:38.036Z,83.20
2018-05-03T09:56:05.900Z,83.10
2018-05-03T09:58:33.721Z,84.20
2018-05-03T10:07:04.321Z,85.00
2018-05-03T10:09:32.920Z,84.90
2018-05-03T10:12:01.133Z,84.90
2018-05-03T10:14:28.945Z,86.60
2018-05-03T10:16:57.593Z,83.50
2018-05-03T10:19:25.430Z,83.50
2018-05-03T10:21:53.276Z,85.20
2018-05-03T10:24:21.107Z,86.50
2018-05-03T10:26:49.061Z,84.90
2018-05-03T10:29:16.908Z,85.40
2018-05-03T10:31:44.746Z,81.20
2018-05-03T10:34:12.596Z,86.00
2018-05-03T10:36:45.085Z,82.70
2018-05-03T10:39:12.933Z,82.80
2018-05-03T10:41:41.533Z,83.60
2018-05-03T10:44:09.642Z,83.60
2018-05-03T10:46:37.530Z,84.60
2018-05-03T10:49:05.513Z,83.50
2018-05-03T10:51:33.333Z,83.30
2018-05-03T10:54:01.219Z,85.20
2018-05-03T10:56:29.067Z,84.60
2018-05-03T10:58:56.938Z,83.00
2018-05-03T11:01:24.758Z,82.00
2018-05-03T11:03:53.385Z,82.70
2018-05-03T11:06:21.223Z,82.60
2018-05-03T11:08:49.124Z,82.20
2018-05-03T11:11:17.048Z,83.90
2018-05-03T11:13:45.679Z,82.10
2018-05-03T11:16:13.553Z,82.00
2018-05-03T11:18:42.234Z,83.60
2018-05-03T11:21:10.145Z,83.50
2018-05-03T11:23:37.943Z,82.80
2018-05-03T11:26:05.773Z,80.10
2018-05-03T11:28:33.762Z,83.50
2018-05-03T11:31:01.640Z,81.80
2018-05-03T11:33:29.563Z,81.60
2018-05-03T11:35:57.438Z,85.50
2018-05-03T11:38:26.254Z,83.60
2018-05-03T11:40:54.842Z,82.20
2018-05-03T11:43:22.789Z,82.30
2018-05-03T11:45:51.417Z,85.10
2018-05-03T11:48:19.318Z,85.20
2018-05-03T11:50:47.198Z,86.70
2018-05-03T11:53:15.907Z,84.30
2018-05-03T11:55:44.510Z,85.90
2018-05-03T12:07:04.361Z,86.80
2018-05-03T12:09:32.244Z,87.70
2018-05-03T12:12:00.180Z,83.90
2018-05-03T12:14:28.042Z,83.40
2018-05-03T12:16:55.882Z,87.50
2018-05-03T12:19:23.641Z,87.20
2018-05-03T12:21:51.486Z,86.90
2018-05-03T12:24:20.397Z,84.40
2018-05-03T12:26:48.634Z,84.40
2018-05-03T12:29:18.984Z,86.10
2018-05-03T12:31:47.334Z,86.10
2018-05-03T12:34:15.348Z,85.50
2018-05-03T12:36:43.968Z,85.00
2018-05-03T12:39:11.907Z,84.90
2018-05-03T12:41:40.508Z,85.80
2018-05-03T12:44:09.103Z,84.30
2018-05-03T12:46:36.937Z,84.30
2018-05-03T12:51:48.258Z,85.60
2018-05-03T12:54:16.008Z,85.50
2018-05-03T12:56:43.816Z,84.00
2018-05-03T12:59:11.773Z,83.80
2018-05-03T13:01:39.611Z,82.90
2018-05-03T13:04:08.469Z,81.70
2018-05-03T13:06:36.703Z,81.90
2018-05-03T13:09:05.165Z,82.10
2018-05-03T13:11:33.109Z,78.10
2018-05-03T13:14:01.282Z,80.50
2018-05-03T13:16:29.276Z,78.00
2018-05-03T13:26:04.461Z,73.10
2018-05-03T13:28:32.345Z,71.90
2018-05-03T13:31:00.233Z,68.40
2018-05-03T13:33:28.153Z,67.60
2018-05-03T13:35:55.961Z,66.40
2018-05-03T13:38:23.692Z,68.70
2018-05-03T13:40:53.669Z,67.70
2018-05-03T13:43:21.654Z,67.60
2018-05-03T13:45:49.501Z,71.40
2018-05-03T13:48:17.547Z,66.30
2018-05-03T13:50:45.404Z,65.70
2018-05-03T13:53:13.361Z,65.60
2018-05-03T13:55:41.821Z,65.60
2018-05-03T14:01:49.521Z,68.10
2018-05-03T14:04:17.349Z,68.80
2018-05-03T14:06:45.189Z,67.10
2018-05-03T14:09:13.043Z,69.20
2018-05-03T14:11:41.751Z,68.80
2018-05-03T14:14:09.603Z,69.00
2018-05-03T14:16:38.324Z,72.20
2018-05-03T14:19:06.392Z,72.30
2018-05-03T14:21:34.217Z,71.40
2018-05-03T14:24:02.927Z,75.50
2018-05-03T14:26:31.514Z,77.30
2018-05-03T14:28:59.347Z,77.50
2018-05-03T14:31:27.985Z,79.40
2018-05-03T14:33:55.828Z,79.40
2018-05-03T14:36:23.643Z,78.90
2018-05-03T14:38:51.559Z,83.20
2018-05-03T14:41:22.190Z,82.10
2018-05-03T14:43:50.058Z,80.50
2018-05-03T14:46:17.923Z,81.40
2018-05-03T14:48:45.820Z,82.30
2018-05-03T14:51:13.648Z,81.20
2018-05-03T14:53:41.506Z,83.90
2018-05-03T14:56:10.117Z,84.70
2018-05-03T15:02:05.386Z,87.10
2018-05-03T15:04:34.043Z,86.30
2018-05-03T15:07:02.697Z,86.30
2018-05-03T15:09:31.277Z,85.40
2018-05-03T15:11:59.950Z,84.20
2018-05-03T15:14:27.737Z,84.30
2018-05-03T15:16:56.439Z,84.40
2018-05-03T15:19:24.318Z,84.30
2018-05-03T15:21:52.155Z,84.80
2018-05-03T15:24:20.038Z,84.80
2018-05-03T15:26:47.860Z,83.60
2018-05-03T15:29:15.665Z,84.40
2018-05-03T15:31:43.553Z,84.50
2018-05-03T15:34:11.401Z,86.80
2018-05-03T15:36:39.234Z,86.20
2018-05-03T15:41:50.506Z,86.30
2018-05-03T15:44:18.538Z,85.80
2018-05-03T15:46:46.365Z,86.40
2018-05-03T15:49:14.247Z,86.30
2018-05-03T15:51:42.908Z,86.30
2018-05-03T15:54:11.574Z,87.20
2018-05-03T15:56:39.409Z,87.20
2018-05-03T15:59:07.244Z,89.50
2018-05-03T16:01:35.056Z,87.10
2018-05-03T16:04:02.921Z,86.80
2018-05-03T16:06:30.948Z,86.70
2018-05-03T16:08:59.558Z,86.70
2018-05-03T16:11:27.549Z,86.80
2018-05-03T16:13:55.574Z,86.90
2018-05-03T16:16:24.180Z,86.50
2018-05-03T16:18:52.023Z,86.40
2018-05-03T16:21:20.629Z,87.20
2018-05-03T16:23:48.459Z,87.20
2018-05-03T16:26:16.361Z,88.10
2018-05-03T16:28:45.737Z,89.90
2018-05-03T16:31:14.336Z,87.40
2018-05-03T16:33:42.924Z,86.30
2018-05-03T16:36:10.956Z,86.30
2018-05-03T16:38:38.782Z,87.40
2018-05-03T16:43:49.285Z,87.00
2018-05-03T16:46:17.222Z,88.20
2018-05-03T16:48:45.091Z,88.80
2018-05-03T16:51:13.081Z,87.70
2018-05-03T16:53:40.972Z,88.20
2018-05-03T16:56:08.839Z,88.00
2018-05-03T16:58:36.678Z,88.70
2018-05-03T17:01:04.516Z,88.70
2018-05-03T17:03:32.405Z,89.30
2018-05-03T17:06:00.284Z,90.20
2018-05-03T17:08:28.190Z,88.60
2018-05-03T17:10:56.014Z,90.20
2018-05-03T17:13:23.841Z,90.20
2018-05-03T17:15:52.436Z,90.60
2018-05-03T17:18:20.270Z,90.70
2018-05-03T17:23:28.937Z,90.40
2018-05-03T17:25:57.535Z,90.70
2018-05-03T17:28:25.517Z,90.70
2018-05-03T17:30:53.427Z,91.30
2018-05-03T17:40:34.566Z,91.60
2018-05-03T17:43:02.449Z,91.30
2018-05-03T17:45:31.051Z,91.30
2018-05-03T17:47:59.945Z,91.60
2018-05-03T17:50:27.775Z,91.60
2018-05-03T17:52:55.608Z,91.80
2018-05-03T17:55:23.709Z,91.30
2018-05-03T18:00:34.313Z,91.90
2018-05-03T18:03:03.049Z,91.70
2018-05-03T18:05:30.929Z,91.70
2018-05-03T18:07:58.840Z,91.40
2018-05-03T18:10:27.504Z,91.80
2018-05-03T18:12:56.094Z,91.60
2018-05-03T18:15:23.924Z,91.60
2018-05-03T18:17:51.803Z,91.30
2018-05-03T18:20:19.644Z,92.00
2018-05-03T18:25:31.005Z,92.10
2018-05-03T18:27:59.026Z,91.60
2018-05-03T18:30:26.862Z,91.80
2018-05-03T18:32:54.980Z,92.10
2018-05-03T18:35:22.857Z,92.50
2018-05-03T18:41:32.142Z,92.80
2018-05-03T18:44:00.797Z,92.80
2018-05-03T18:46:28.774Z,92.80
2018-05-03T18:48:56.596Z,92.60
2018-05-03T18:51:24.465Z,93.30
2018-05-03T18:53:52.330Z,93.00
2018-05-03T18:56:20.204Z,93.20
2018-05-03T18:58:48.086Z,93.30
2018-05-03T19:01:15.947Z,93.20
2018-05-03T19:03:43.805Z,93.70
2018-05-03T19:06:12.478Z,93.70
2018-05-03T19:08:40.520Z,93.60
2018-05-03T19:11:08.418Z,93.50
2018-05-03T19:13:36.249Z,93.90
2018-05-03T19:16:04.186Z,93.60
2018-05-03T19:25:39.018Z,94.40
2018-05-03T19:28:06.906Z,93.90
2018-05-03T19:30:35.155Z,94.20
2018-05-03T19:33:03.493Z,94.40
2018-05-03T19:35:31.399Z,94.20
2018-05-03T19:37:59.222Z,94.80
2018-05-03T19:40:27.124Z,94.80
2018-05-03T19:42:54.957Z,94.50
2018-05-03T19:50:29.405Z,94.80
2018-05-03T19:52:57.234Z,94.50
2018-05-03T19:55:25.124Z,94.40
2018-05-03T19:57:53.003Z,94.50
2018-05-03T20:00:20.851Z,95.20
2018-05-03T20:02:48.843Z,94.70
2018-05-03T20:05:16.746Z,95.00
2018-05-03T20:07:44.596Z,95.30
2018-05-03T20:10:12.401Z,95.20
2018-05-03T20:12:40.272Z,95.00
2018-05-03T20:15:08.131Z,95.30
2018-05-03T20:17:35.954Z,95.20
2018-05-03T20:20:04.571Z,95.30
2018-05-03T20:22:32.415Z,95.30
2018-05-03T20:25:01.013Z,95.40
2018-05-03T20:27:28.961Z,95.40
2018-05-03T20:29:56.805Z,95.80
2018-05-03T20:32:24.640Z,95.50
2018-05-03T20:34:52.816Z,95.60
2018-05-03T20:37:20.678Z,95.50
2018-05-03T20:39:48.501Z,96.10
2018-05-03T20:42:17.131Z,95.50
2018-05-03T20:46:02.736Z,95.40
2018-05-03T20:48:30.510Z,95.40
2018-05-03T20:50:58.349Z,95.70
2018-05-03T20:53:27.151Z,95.60
2018-05-03T20:55:54.984Z,95.60
2018-05-03T20:58:23.006Z,96.00
2018-05-03T21:00:50.941Z,96.30
2018-05-03T21:03:18.778Z,95.80
2018-05-03T21:05:46.596Z,96.00
2018-05-03T21:08:14.510Z,95.60
2018-05-03T21:10:43.118Z,95.70
2018-05-03T21:13:10.946Z,95.80
2018-05-03T21:15:38.789Z,95.70
2018-05-03T21:18:07.419Z,95.10
2018-05-03T21:20:36.021Z,95.00
2018-05-03T21:23:03.869Z,95.00
2018-05-03T21:25:32.577Z,94.90
2018-05-03T21:35:32.738Z,95.70
2018-05-03T21:38:00.548Z,94.90
2018-05-03T21:40:28.419Z,95.70
2018-05-03T21:42:56.255Z,94.70
2018-05-03T21:45:24.160Z,94.70
2018-05-03T21:47:51.977Z,94.30
2018-05-03T21:50:20.581Z,95.00
2018-05-03T21:52:48.533Z,95.00
2018-05-03T21:55:16.451Z,95.00
2018-05-03T22:00:26.016Z,95.00
2018-05-03T22:02:53.845Z,95.00
2018-05-03T22:05:21.848Z,95.10
2018-05-03T22:07:49.810Z,95.00
2018-05-03T22:10:17.694Z,94.70
2018-05-03T22:15:27.104Z,94.50
2018-05-03T22:17:55.061Z,94.50
2018-05-03T22:20:23.728Z,94.70
2018-05-03T22:22:52.522Z,94.40
2018-05-03T22:25:21.215Z,94.50
2018-05-03T22:27:49.043Z,94.50
2018-05-03T22:30:16.892Z,94.40
2018-05-03T22:32:44.730Z,94.70
2018-05-03T22:35:12.562Z,94.70
2018-05-03T22:37:41.163Z,94.40
2018-05-03T22:40:09.021Z,94.40
2018-05-03T22:42:37.624Z,94.30
2018-05-03T22:45:05.708Z,94.30
2018-05-03T22:47:33.532Z,94.40
2018-05-03T22:50:01.461Z,94.20
2018-05-03T22:52:29.507Z,94.30
2018-05-03T22:54:57.990Z,94.20
2018-05-03T23:01:14.508Z,94.00
2018-05-03T23:03:42.457Z,93.90
2018-05-03T23:06:11.168Z,93.90
2018-05-03T23:11:19.809Z,94.20
2018-05-03T23:13:47.663Z,93.60
2018-05-03T23:16:15.549Z,93.40
2018-05-03T23:22:13.645Z,92.90
2018-05-03T23:24:41.702Z,92.90
2018-05-03T23:27:09.534Z,93.10
2018-05-03T23:29:38.221Z,92.70
2018-05-03T23:32:06.052Z,92.70
2018-05-03T23:34:33.924Z,92.40
2018-05-03T23:37:02.568Z,92.90
2018-05-03T23:39:31.194Z,92.40
2018-05-03T23:41:59.029Z,92.40
2018-05-03T23:44:28.931Z,92.80
2018-05-03T23:46:57.520Z,92.50
2018-05-03T23:49:26.187Z,92.70
2018-05-03T23:51:54.021Z,92.70
2018-05-03T23:54:21.945Z,92.80
2018-05-03T23:56:50.557Z,92.90
2018-05-03T23:59:18.575Z,92.90
